Viking Queen — WDI7023 — position and weather

sailwx.info

Track history (hours):
 
Tides and Currents Weather Stations Pressure Air Temp Water Temp Dewpoint Dewpoint Depression Visibility Wind Speed Wind Dir Waves Ship Positions

Viking Queen

Owner: AK Vessel Company LLC, Seattle, WA. More information available from US FCC via Universal Licensing System and Coast Guard Vessel Documentation Center.

Last reported at 2017-Oct-18 17:01 UTC. Time now 2017-Oct-18 17:02 UTC.
Position N 47°38' W 122°23'.

Length 34 m.

MMSI: 367777000.

Date/timePositionNaut miles runAvg speedWind from/ knotsBaromVisibWave heightAir tempDewpointWater temp
2017-Oct-18 17:01N 47°38' W 122°23'0 0.0
2017-Oct-18 16:30N 47°38' W 122°23'0 0.0
2017-Oct-18 16:00N 47°38' W 122°23'0 0.3
2017-Oct-18 15:30N 47°38' W 122°23'0 0.0
2017-Oct-18 15:00N 47°38' W 122°23'0 0.0
2017-Oct-18 14:00N 47°38' W 122°23'0 0.0
2017-Oct-18 13:30N 47°38' W 122°23'0 0.0
2017-Oct-18 13:00N 47°38' W 122°23'0 0.0
2017-Oct-18 12:30N 47°38' W 122°23'0 0.0
2017-Oct-18 12:00N 47°38' W 122°23'0 0.0
2017-Oct-18 11:30N 47°38' W 122°23'0 0.0
2017-Oct-18 11:00N 47°38' W 122°23'0 0.0
2017-Oct-18 10:30N 47°38' W 122°23'0 0.0
2017-Oct-18 10:01N 47°38' W 122°23'0 0.0
2017-Oct-18 09:30N 47°38' W 122°23'0 0.0
2017-Oct-18 09:00N 47°38' W 122°23'0 0.0
2017-Oct-18 08:31N 47°38' W 122°23'3 5.7
2017-Oct-18 08:00N 47°39' W 122°27'4 8.0
2017-Oct-18 07:30N 47°43' W 122°27'4 8.5
2017-Oct-18 07:00N 47°47' W 122°28'4 8.6
2017-Oct-18 06:30N 47°52' W 122°29'4 8.2
2017-Oct-18 06:01N 47°55' W 122°31'4 8.0
2017-Oct-18 05:27N 47°58' W 122°36'3 6.8
2017-Oct-18 05:00N 48°01' W 122°38'21 5.7
2017-Oct-18 01:25N 48°21' W 122°46'4 8.7
2017-Oct-18 00:58N 48°25' W 122°45'4 8.7
2017-Oct-18 00:30N 48°28' W 122°43'4 8.1
2017-Oct-18 00:00N 48°32' W 122°41'1 0.1
2017-Oct-17 14:52N 48°33' W 122°41'0 0.2
2017-Oct-17 14:29N 48°34' W 122°41'0 0.1
2017-Oct-17 14:00N 48°34' W 122°41'0 0.0
2017-Oct-17 13:29N 48°34' W 122°41'0 0.0
2017-Oct-17 12:59N 48°33' W 122°41'0 0.0
2017-Oct-17 12:14N 48°34' W 122°41'0 0.0
2017-Oct-17 11:53N 48°34' W 122°41'0 0.0
2017-Oct-17 11:21N 48°34' W 122°41'0 0.0
2017-Oct-17 11:00N 48°34' W 122°41'0 0.1
2017-Oct-17 10:30N 48°34' W 122°41'0 0.0
2017-Oct-17 10:00N 48°34' W 122°41'0 0.0
2017-Oct-17 09:30N 48°34' W 122°41'0 0.0
2017-Oct-17 09:00N 48°34' W 122°41'0 0.0
2017-Oct-17 08:30N 48°34' W 122°41'0 0.0
2017-Oct-17 08:01N 48°34' W 122°41'0 0.0
2017-Oct-17 07:30N 48°34' W 122°41'0 0.0
2017-Oct-17 07:00N 48°34' W 122°41'0 0.0
2017-Oct-17 06:30N 48°34' W 122°41'0 0.0
2017-Oct-17 06:01N 48°34' W 122°41'0 0.0
2017-Oct-17 05:28N 48°34' W 122°41'0 0.0
2017-Oct-17 04:59N 48°34' W 122°41'0 0.0
2017-Oct-17 04:28N 48°34' W 122°41'0 0.0
2017-Oct-17 04:00N 48°34' W 122°41'0 0.0
2017-Oct-17 03:15N 48°34' W 122°41'0 0.2
2017-Oct-17 03:00N 48°34' W 122°41'0 0.1
2017-Oct-17 02:19N 48°34' W 122°41'0 0.0
2017-Oct-17 00:19N 48°34' W 122°41'3 4.7
2017-Oct-16 23:39N 48°31' W 122°42'1 9.0
2017-Oct-16 23:30N 48°29' W 122°43'30 6.9
2017-Oct-16 19:08N 47°60' W 122°35'1 7.8
2017-Oct-16 18:59N 47°59' W 122°34'3 7.3
2017-Oct-16 18:30N 47°56' W 122°30'4 8.7
2017-Oct-16 18:00N 47°52' W 122°28'5 9.2
2017-Oct-16 17:30N 47°48' W 122°26'5 9.2
2017-Oct-16 17:00N 47°43' W 122°26'5 9.0
2017-Oct-16 16:30N 47°39' W 122°26'3 5.0
2017-Oct-16 16:00N 47°38' W 122°23'0 0.0
2017-Oct-16 15:30N 47°38' W 122°23'0 0.3
2017-Oct-16 15:00N 47°38' W 122°23'0 0.0
2017-Oct-16 14:00N 47°38' W 122°23'0 0.0
2017-Oct-16 13:30N 47°38' W 122°23'0 0.0
2017-Oct-16 13:00N 47°38' W 122°23'0 0.0
2017-Oct-16 12:31N 47°38' W 122°23'0 0.0
2017-Oct-16 12:00N 47°38' W 122°23'0 0.0
2017-Oct-16 11:30N 47°38' W 122°23'0 0.0
2017-Oct-16 11:00N 47°38' W 122°23'0 0.0
2017-Oct-16 10:30N 47°38' W 122°23'0 0.0
2017-Oct-16 10:00N 47°38' W 122°23'0 0.0
2017-Oct-16 09:30N 47°38' W 122°23'2 3.9
2017-Oct-16 09:00N 47°38' W 122°26'4 7.8
2017-Oct-16 08:30N 47°42' W 122°28'4 8.6
2017-Oct-16 08:00N 47°46' W 122°27'4 8.4
2017-Oct-16 07:31N 47°50' W 122°28'4 8.7
2017-Oct-16 07:01N 47°55' W 122°30'5 8.9
2017-Oct-16 06:28N 47°58' W 122°35'4 8.8
2017-Oct-16 06:00N 48°01' W 122°39'20 7.8
2017-Oct-16 03:23N 48°21' W 122°46'4 9.6
2017-Oct-16 03:00N 48°25' W 122°45'510.3
2017-Oct-16 02:30N 48°30' W 122°43'4 0.4
2017-Oct-15 15:41N 48°33' W 122°41'0 1.0
2017-Oct-15 15:30N 48°33' W 122°41'0 0.3
2017-Oct-15 14:31N 48°34' W 122°41'0 0.0
2017-Oct-15 14:00N 48°34' W 122°41'0 0.1
2017-Oct-15 13:30N 48°34' W 122°41'0 0.0
2017-Oct-15 12:55N 48°34' W 122°41'0 0.0
2017-Oct-15 12:04N 48°33' W 122°41'0 0.0
2017-Oct-15 11:54N 48°33' W 122°41'0 0.0
2017-Oct-15 11:20N 48°33' W 122°41'0 0.0
2017-Oct-15 09:01N 48°33' W 122°41'0 0.1
2017-Oct-15 08:48N 48°33' W 122°41'0 0.0
2017-Oct-15 08:30N 48°34' W 122°41'0 0.0
2017-Oct-15 08:00N 48°34' W 122°41'0 0.0
2017-Oct-15 07:30N 48°34' W 122°41'0 0.1
2017-Oct-15 06:59N 48°34' W 122°41'0 0.0
2017-Oct-15 06:30N 48°34' W 122°41'0 0.1
2017-Oct-15 05:55N 48°34' W 122°41'0 0.1
2017-Oct-15 05:30N 48°34' W 122°41'0 0.0
2017-Oct-15 04:59N 48°34' W 122°41'3 2.1
2017-Oct-15 03:40N 48°31' W 122°42'2 7.8
2017-Oct-15 03:28N 48°29' W 122°43'32 8.7
2017-Oct-14 23:52N 47°58' W 122°34'410.7
2017-Oct-14 23:30N 47°56' W 122°30'510.0
2017-Oct-14 23:01N 47°51' W 122°27'5 9.6
2017-Oct-14 22:31N 47°47' W 122°26'5 9.2
2017-Oct-14 22:00N 47°42' W 122°26'4 8.5
2017-Oct-14 21:30N 47°38' W 122°25'1 2.8
2017-Oct-14 21:01N 47°38' W 122°23'0 0.0
2017-Oct-14 20:30N 47°38' W 122°23'0 0.0
2017-Oct-14 20:00N 47°38' W 122°23'0 0.0
2017-Oct-14 19:30N 47°38' W 122°23'0 0.0
2017-Oct-14 19:01N 47°38' W 122°23'0 0.0
2017-Oct-14 18:30N 47°38' W 122°23'0 0.0
2017-Oct-14 18:00N 47°38' W 122°23'0 0.0
2017-Oct-14 17:30N 47°38' W 122°23'0 0.0
2017-Oct-14 17:00N 47°38' W 122°23'0 0.0
2017-Oct-14 16:30N 47°38' W 122°23'0 0.0
2017-Oct-14 16:01N 47°38' W 122°23'0 0.0
2017-Oct-14 15:30N 47°38' W 122°23'0 0.0
2017-Oct-14 15:01N 47°38' W 122°23'0 0.0
2017-Oct-14 14:30N 47°38' W 122°23'0 0.0
2017-Oct-14 14:00N 47°38' W 122°23'0 0.0
2017-Oct-14 13:31N 47°38' W 122°23'0 0.0
2017-Oct-14 13:00N 47°38' W 122°23'0 0.0
2017-Oct-14 12:30N 47°38' W 122°23'0 0.0
2017-Oct-14 12:00N 47°38' W 122°23'0 0.0
2017-Oct-14 11:30N 47°38' W 122°23'0 0.0
2017-Oct-14 11:00N 47°38' W 122°23'0 0.0
2017-Oct-14 10:30N 47°38' W 122°23'0 0.0
2017-Oct-14 10:00N 47°38' W 122°23'0 0.0
2017-Oct-14 09:30N 47°38' W 122°23'0 0.0
2017-Oct-14 09:00N 47°38' W 122°23'0 0.0
2017-Oct-14 08:30N 47°38' W 122°23'0 0.0
2017-Oct-14 08:00N 47°38' W 122°23'0 0.0
2017-Oct-14 07:30N 47°38' W 122°23'0 0.0
2017-Oct-14 07:01N 47°38' W 122°23'0 0.0
2017-Oct-14 06:31N 47°38' W 122°23'0 0.0
2017-Oct-14 06:00N 47°38' W 122°23'0 0.0
2017-Oct-14 05:31N 47°38' W 122°23'0 0.0
2017-Oct-14 05:00N 47°38' W 122°23'0 0.0
2017-Oct-14 04:30N 47°38' W 122°23'0 0.0
2017-Oct-14 04:00N 47°38' W 122°23'0 0.0
2017-Oct-14 03:31N 47°38' W 122°23'0 0.0
2017-Oct-14 03:00N 47°38' W 122°23'0 0.0
2017-Oct-14 02:30N 47°38' W 122°23'0 0.0
2017-Oct-14 02:00N 47°38' W 122°23'0 0.0
2017-Oct-14 01:30N 47°38' W 122°23'0 0.0
2017-Oct-14 01:00N 47°38' W 122°23'0 0.0
2017-Oct-14 00:27N 47°38' W 122°23'0 0.0
2017-Oct-13 23:57N 47°38' W 122°23'0 0.0
2017-Oct-13 23:28N 47°38' W 122°23'0 0.0
2017-Oct-13 23:01N 47°38' W 122°23'0 0.0
2017-Oct-13 22:30N 47°38' W 122°23'0 0.0
2017-Oct-13 22:00N 47°38' W 122°23'0 0.0
2017-Oct-13 21:30N 47°38' W 122°23'0 0.0
2017-Oct-13 21:00N 47°38' W 122°23'0 0.0
2017-Oct-13 20:30N 47°38' W 122°23'0 0.0
2017-Oct-13 20:00N 47°38' W 122°23'0 0.0
2017-Oct-13 19:30N 47°38' W 122°23'0 0.0
2017-Oct-13 19:00N 47°38' W 122°23'0 0.0
2017-Oct-13 18:30N 47°38' W 122°23'0 0.0
2017-Oct-13 18:00N 47°38' W 122°23'0 0.0
2017-Oct-13 17:30N 47°38' W 122°23'0 0.0
2017-Oct-13 17:01N 47°38' W 122°23'0 0.0
2017-Oct-13 16:31N 47°38' W 122°23'0 0.0
2017-Oct-13 16:00N 47°38' W 122°23'0 0.0
2017-Oct-13 15:30N 47°38' W 122°23'0 0.0
2017-Oct-13 15:00N 47°38' W 122°23'0 0.0
2017-Oct-13 14:30N 47°38' W 122°23'0 0.0
2017-Oct-13 14:01N 47°38' W 122°23'0 0.0
2017-Oct-13 13:30N 47°38' W 122°23'0 0.0
2017-Oct-13 13:00N 47°38' W 122°23'0 0.0
2017-Oct-13 12:30N 47°38' W 122°23'0 0.0
2017-Oct-13 12:00N 47°38' W 122°23'0 0.0
2017-Oct-13 11:30N 47°38' W 122°23'0 0.0
2017-Oct-13 11:01N 47°38' W 122°23'0 0.0
2017-Oct-13 10:30N 47°38' W 122°23'0 0.0
2017-Oct-13 10:00N 47°38' W 122°23'0 0.0
2017-Oct-13 09:30N 47°38' W 122°23'0 0.0
2017-Oct-13 09:00N 47°38' W 122°23'0 0.0
2017-Oct-13 08:30N 47°38' W 122°23'0 0.0
2017-Oct-13 08:00N 47°38' W 122°23'0 0.3
2017-Oct-13 07:30N 47°38' W 122°23'3 6.6
2017-Oct-13 07:00N 47°39' W 122°27'4 7.5
2017-Oct-13 06:31N 47°43' W 122°28'4 8.0
2017-Oct-13 06:00N 47°47' W 122°27'4 8.1
2017-Oct-13 05:30N 47°51' W 122°29'4 8.5
2017-Oct-13 05:00N 47°55' W 122°30'4 8.7
2017-Oct-13 04:30N 47°58' W 122°35'25 8.3
2017-Oct-13 01:32N 48°22' W 122°46'2 8.9
2017-Oct-13 01:18N 48°24' W 122°45'3 8.9
2017-Oct-13 01:00N 48°26' W 122°44'5 9.6
2017-Oct-13 00:30N 48°31' W 122°43'3 0.3
2017-Oct-12 13:48N 48°33' W 122°41'2 6.4
2017-Oct-12 13:30N 48°31' W 122°40'1 0.2
2017-Oct-12 08:21N 48°31' W 122°39'0 0.0
2017-Oct-12 07:59N 48°31' W 122°39'0 0.0
2017-Oct-12 07:14N 48°31' W 122°39'0 0.0
2017-Oct-12 06:51N 48°31' W 122°39'0 0.0
2017-Oct-12 05:56N 48°31' W 122°39'0 0.0
2017-Oct-12 00:31N 48°31' W 122°39'0 0.0
2017-Oct-12 00:30N 48°31' W 122°39'3 5.8
2017-Oct-12 00:00N 48°30' W 122°43'31 8.7
2017-Oct-11 20:22N 47°59' W 122°35'410.2
2017-Oct-11 20:00N 47°56' W 122°30'5 9.4
2017-Oct-11 19:30N 47°52' W 122°28'5 9.3
2017-Oct-11 19:00N 47°48' W 122°26'5 9.2
2017-Oct-11 18:30N 47°43' W 122°26'5 9.0
2017-Oct-11 18:00N 47°38' W 122°26'2 3.9
2017-Oct-11 17:30N 47°38' W 122°23'0 0.0
2017-Oct-11 17:01N 47°38' W 122°23'57 3.3
2017-Oct-10 23:59N 48°34' W 122°41'0 0.0
2017-Oct-10 13:53N 48°34' W 122°41'0 0.7
2017-Oct-10 13:31N 48°33' W 122°41'3 0.6
2017-Oct-10 08:30N 48°31' W 122°39'0 0.0
2017-Oct-10 07:53N 48°31' W 122°39'0 0.0
2017-Oct-10 00:12N 48°31' W 122°39'3 6.6
2017-Oct-09 23:42N 48°29' W 122°43'31 8.3
2017-Oct-09 19:57N 47°59' W 122°34'410.3
2017-Oct-09 19:30N 47°56' W 122°29'5 9.5
2017-Oct-09 19:01N 47°51' W 122°28'5 9.3
2017-Oct-09 18:30N 47°47' W 122°26'5 9.3
2017-Oct-09 18:00N 47°42' W 122°26'4 8.6
2017-Oct-09 17:30N 47°38' W 122°24'1 1.8
2017-Oct-09 17:00N 47°38' W 122°23'0 0.0
2017-Oct-09 16:30N 47°38' W 122°23'0 0.0
2017-Oct-09 16:00N 47°38' W 122°23'0 0.0
2017-Oct-09 15:30N 47°38' W 122°23'0 0.0
2017-Oct-09 15:01N 47°38' W 122°23'0 0.0
2017-Oct-09 14:30N 47°38' W 122°23'0 0.0
2017-Oct-09 14:00N 47°38' W 122°23'0 0.0
2017-Oct-09 13:30N 47°38' W 122°23'0 0.0
2017-Oct-09 13:00N 47°38' W 122°23'0 0.0
2017-Oct-09 12:30N 47°38' W 122°23'0 0.0
2017-Oct-09 12:01N 47°38' W 122°23'0 0.0
2017-Oct-09 11:30N 47°38' W 122°23'0 0.0
2017-Oct-09 11:00N 47°38' W 122°23'0 0.0
2017-Oct-09 10:30N 47°38' W 122°23'0 0.0
2017-Oct-09 10:00N 47°38' W 122°23'0 0.0
2017-Oct-09 09:31N 47°38' W 122°23'0 0.0
2017-Oct-09 09:01N 47°38' W 122°23'0 0.0
2017-Oct-09 08:30N 47°38' W 122°23'0 0.0
2017-Oct-09 08:00N 47°38' W 122°23'0 0.0
2017-Oct-09 07:31N 47°38' W 122°23'0 0.0
2017-Oct-09 07:00N 47°38' W 122°23'1 1.5
2017-Oct-09 06:30N 47°37' W 122°24'3 6.6
2017-Oct-09 06:01N 47°39' W 122°28'4 7.7
2017-Oct-09 05:30N 47°43' W 122°27'4 7.6
2017-Oct-09 05:00N 47°47' W 122°27'4 7.7
2017-Oct-09 04:30N 47°50' W 122°29'4 7.3
2017-Oct-09 04:00N 47°54' W 122°30'3 6.7
2017-Oct-09 03:29N 47°56' W 122°34'4 7.3
2017-Oct-09 02:57N 47°60' W 122°37'20 8.3
2017-Oct-09 00:34N 48°18' W 122°47'3 8.4
2017-Oct-09 00:15N 48°21' W 122°46'2 8.1
2017-Oct-08 23:58N 48°23' W 122°45'4 8.0
2017-Oct-08 23:30N 48°27' W 122°44'4 7.3
2017-Oct-08 23:00N 48°30' W 122°43'  
Track history (hours):
 
Tides and Currents Weather Stations Pressure Air Temp Water Temp Dewpoint Dewpoint Depression Visibility Wind Speed Wind Dir Waves Ship Positions

Viking Queen

Owner: AK Vessel Company LLC, Seattle, WA. More information available from US FCC via Universal Licensing System and Coast Guard Vessel Documentation Center.

Last reported at 2017-Oct-18 17:01 UTC. Time now 2017-Oct-18 17:02 UTC.
Position N 47°38' W 122°23'.

Length 34 m.

MMSI: 367777000.

Date/timePositionNaut miles runAvg speedWind from/ knotsBaromVisibWave heightAir tempDewpointWater temp
2017-Oct-18 17:01N 47°38' W 122°23'0 0.0
2017-Oct-18 16:30N 47°38' W 122°23'0 0.0
2017-Oct-18 16:00N 47°38' W 122°23'0 0.3
2017-Oct-18 15:30N 47°38' W 122°23'0 0.0
2017-Oct-18 15:00N 47°38' W 122°23'0 0.0
2017-Oct-18 14:00N 47°38' W 122°23'0 0.0
2017-Oct-18 13:30N 47°38' W 122°23'0 0.0
2017-Oct-18 13:00N 47°38' W 122°23'0 0.0
2017-Oct-18 12:30N 47°38' W 122°23'0 0.0
2017-Oct-18 12:00N 47°38' W 122°23'0 0.0
2017-Oct-18 11:30N 47°38' W 122°23'0 0.0
2017-Oct-18 11:00N 47°38' W 122°23'0 0.0
2017-Oct-18 10:30N 47°38' W 122°23'0 0.0
2017-Oct-18 10:01N 47°38' W 122°23'0 0.0
2017-Oct-18 09:30N 47°38' W 122°23'0 0.0
2017-Oct-18 09:00N 47°38' W 122°23'0 0.0
2017-Oct-18 08:31N 47°38' W 122°23'3 5.7
2017-Oct-18 08:00N 47°39' W 122°27'4 8.0
2017-Oct-18 07:30N 47°43' W 122°27'4 8.5
2017-Oct-18 07:00N 47°47' W 122°28'4 8.6
2017-Oct-18 06:30N 47°52' W 122°29'4 8.2
2017-Oct-18 06:01N 47°55' W 122°31'4 8.0
2017-Oct-18 05:27N 47°58' W 122°36'3 6.8
2017-Oct-18 05:00N 48°01' W 122°38'21 5.7
2017-Oct-18 01:25N 48°21' W 122°46'4 8.7
2017-Oct-18 00:58N 48°25' W 122°45'4 8.7
2017-Oct-18 00:30N 48°28' W 122°43'4 8.1
2017-Oct-18 00:00N 48°32' W 122°41'1 0.1
2017-Oct-17 14:52N 48°33' W 122°41'0 0.2
2017-Oct-17 14:29N 48°34' W 122°41'0 0.1
2017-Oct-17 14:00N 48°34' W 122°41'0 0.0
2017-Oct-17 13:29N 48°34' W 122°41'0 0.0
2017-Oct-17 12:59N 48°33' W 122°41'0 0.0
2017-Oct-17 12:14N 48°34' W 122°41'0 0.0
2017-Oct-17 11:53N 48°34' W 122°41'0 0.0
2017-Oct-17 11:21N 48°34' W 122°41'0 0.0
2017-Oct-17 11:00N 48°34' W 122°41'0 0.1
2017-Oct-17 10:30N 48°34' W 122°41'0 0.0
2017-Oct-17 10:00N 48°34' W 122°41'0 0.0
2017-Oct-17 09:30N 48°34' W 122°41'0 0.0
2017-Oct-17 09:00N 48°34' W 122°41'0 0.0
2017-Oct-17 08:30N 48°34' W 122°41'0 0.0
2017-Oct-17 08:01N 48°34' W 122°41'0 0.0
2017-Oct-17 07:30N 48°34' W 122°41'0 0.0
2017-Oct-17 07:00N 48°34' W 122°41'0 0.0
2017-Oct-17 06:30N 48°34' W 122°41'0 0.0
2017-Oct-17 06:01N 48°34' W 122°41'0 0.0
2017-Oct-17 05:28N 48°34' W 122°41'0 0.0
2017-Oct-17 04:59N 48°34' W 122°41'0 0.0
2017-Oct-17 04:28N 48°34' W 122°41'0 0.0
2017-Oct-17 04:00N 48°34' W 122°41'0 0.0
2017-Oct-17 03:15N 48°34' W 122°41'0 0.2
2017-Oct-17 03:00N 48°34' W 122°41'0 0.1
2017-Oct-17 02:19N 48°34' W 122°41'0 0.0
2017-Oct-17 00:19N 48°34' W 122°41'3 4.7
2017-Oct-16 23:39N 48°31' W 122°42'1 9.0
2017-Oct-16 23:30N 48°29' W 122°43'30 6.9
2017-Oct-16 19:08N 47°60' W 122°35'1 7.8
2017-Oct-16 18:59N 47°59' W 122°34'3 7.3
2017-Oct-16 18:30N 47°56' W 122°30'4 8.7
2017-Oct-16 18:00N 47°52' W 122°28'5 9.2
2017-Oct-16 17:30N 47°48' W 122°26'5 9.2
2017-Oct-16 17:00N 47°43' W 122°26'5 9.0
2017-Oct-16 16:30N 47°39' W 122°26'3 5.0
2017-Oct-16 16:00N 47°38' W 122°23'0 0.0
2017-Oct-16 15:30N 47°38' W 122°23'0 0.3
2017-Oct-16 15:00N 47°38' W 122°23'0 0.0
2017-Oct-16 14:00N 47°38' W 122°23'0 0.0
2017-Oct-16 13:30N 47°38' W 122°23'0 0.0
2017-Oct-16 13:00N 47°38' W 122°23'0 0.0
2017-Oct-16 12:31N 47°38' W 122°23'0 0.0
2017-Oct-16 12:00N 47°38' W 122°23'0 0.0
2017-Oct-16 11:30N 47°38' W 122°23'0 0.0
2017-Oct-16 11:00N 47°38' W 122°23'0 0.0
2017-Oct-16 10:30N 47°38' W 122°23'0 0.0
2017-Oct-16 10:00N 47°38' W 122°23'0 0.0
2017-Oct-16 09:30N 47°38' W 122°23'2 3.9
2017-Oct-16 09:00N 47°38' W 122°26'4 7.8
2017-Oct-16 08:30N 47°42' W 122°28'4 8.6
2017-Oct-16 08:00N 47°46' W 122°27'4 8.4
2017-Oct-16 07:31N 47°50' W 122°28'4 8.7
2017-Oct-16 07:01N 47°55' W 122°30'5 8.9
2017-Oct-16 06:28N 47°58' W 122°35'4 8.8
2017-Oct-16 06:00N 48°01' W 122°39'20 7.8
2017-Oct-16 03:23N 48°21' W 122°46'4 9.6
2017-Oct-16 03:00N 48°25' W 122°45'510.3
2017-Oct-16 02:30N 48°30' W 122°43'4 0.4
2017-Oct-15 15:41N 48°33' W 122°41'0 1.0
2017-Oct-15 15:30N 48°33' W 122°41'0 0.3
2017-Oct-15 14:31N 48°34' W 122°41'0 0.0
2017-Oct-15 14:00N 48°34' W 122°41'0 0.1
2017-Oct-15 13:30N 48°34' W 122°41'0 0.0
2017-Oct-15 12:55N 48°34' W 122°41'0 0.0
2017-Oct-15 12:04N 48°33' W 122°41'0 0.0
2017-Oct-15 11:54N 48°33' W 122°41'0 0.0
2017-Oct-15 11:20N 48°33' W 122°41'0 0.0
2017-Oct-15 09:01N 48°33' W 122°41'0 0.1
2017-Oct-15 08:48N 48°33' W 122°41'0 0.0
2017-Oct-15 08:30N 48°34' W 122°41'0 0.0
2017-Oct-15 08:00N 48°34' W 122°41'0 0.0
2017-Oct-15 07:30N 48°34' W 122°41'0 0.1
2017-Oct-15 06:59N 48°34' W 122°41'0 0.0
2017-Oct-15 06:30N 48°34' W 122°41'0 0.1
2017-Oct-15 05:55N 48°34' W 122°41'0 0.1
2017-Oct-15 05:30N 48°34' W 122°41'0 0.0
2017-Oct-15 04:59N 48°34' W 122°41'3 2.1
2017-Oct-15 03:40N 48°31' W 122°42'2 7.8
2017-Oct-15 03:28N 48°29' W 122°43'32 8.7
2017-Oct-14 23:52N 47°58' W 122°34'410.7
2017-Oct-14 23:30N 47°56' W 122°30'510.0
2017-Oct-14 23:01N 47°51' W 122°27'5 9.6
2017-Oct-14 22:31N 47°47' W 122°26'5 9.2
2017-Oct-14 22:00N 47°42' W 122°26'4 8.5
2017-Oct-14 21:30N 47°38' W 122°25'1 2.8
2017-Oct-14 21:01N 47°38' W 122°23'0 0.0
2017-Oct-14 20:30N 47°38' W 122°23'0 0.0
2017-Oct-14 20:00N 47°38' W 122°23'0 0.0
2017-Oct-14 19:30N 47°38' W 122°23'0 0.0
2017-Oct-14 19:01N 47°38' W 122°23'0 0.0
2017-Oct-14 18:30N 47°38' W 122°23'0 0.0
2017-Oct-14 18:00N 47°38' W 122°23'0 0.0
2017-Oct-14 17:30N 47°38' W 122°23'0 0.0
2017-Oct-14 17:00N 47°38' W 122°23'0 0.0
2017-Oct-14 16:30N 47°38' W 122°23'0 0.0
2017-Oct-14 16:01N 47°38' W 122°23'0 0.0
2017-Oct-14 15:30N 47°38' W 122°23'0 0.0
2017-Oct-14 15:01N 47°38' W 122°23'0 0.0
2017-Oct-14 14:30N 47°38' W 122°23'0 0.0
2017-Oct-14 14:00N 47°38' W 122°23'0 0.0
2017-Oct-14 13:31N 47°38' W 122°23'0 0.0
2017-Oct-14 13:00N 47°38' W 122°23'0 0.0
2017-Oct-14 12:30N 47°38' W 122°23'0 0.0
2017-Oct-14 12:00N 47°38' W 122°23'0 0.0
2017-Oct-14 11:30N 47°38' W 122°23'0 0.0
2017-Oct-14 11:00N 47°38' W 122°23'0 0.0
2017-Oct-14 10:30N 47°38' W 122°23'0 0.0
2017-Oct-14 10:00N 47°38' W 122°23'0 0.0
2017-Oct-14 09:30N 47°38' W 122°23'0 0.0
2017-Oct-14 09:00N 47°38' W 122°23'0 0.0
2017-Oct-14 08:30N 47°38' W 122°23'0 0.0
2017-Oct-14 08:00N 47°38' W 122°23'0 0.0
2017-Oct-14 07:30N 47°38' W 122°23'0 0.0
2017-Oct-14 07:01N 47°38' W 122°23'0 0.0
2017-Oct-14 06:31N 47°38' W 122°23'0 0.0
2017-Oct-14 06:00N 47°38' W 122°23'0 0.0
2017-Oct-14 05:31N 47°38' W 122°23'0 0.0
2017-Oct-14 05:00N 47°38' W 122°23'0 0.0
2017-Oct-14 04:30N 47°38' W 122°23'0 0.0
2017-Oct-14 04:00N 47°38' W 122°23'0 0.0
2017-Oct-14 03:31N 47°38' W 122°23'0 0.0
2017-Oct-14 03:00N 47°38' W 122°23'0 0.0
2017-Oct-14 02:30N 47°38' W 122°23'0 0.0
2017-Oct-14 02:00N 47°38' W 122°23'0 0.0
2017-Oct-14 01:30N 47°38' W 122°23'0 0.0
2017-Oct-14 01:00N 47°38' W 122°23'0 0.0
2017-Oct-14 00:27N 47°38' W 122°23'0 0.0
2017-Oct-13 23:57N 47°38' W 122°23'0 0.0
2017-Oct-13 23:28N 47°38' W 122°23'0 0.0
2017-Oct-13 23:01N 47°38' W 122°23'0 0.0
2017-Oct-13 22:30N 47°38' W 122°23'0 0.0
2017-Oct-13 22:00N 47°38' W 122°23'0 0.0
2017-Oct-13 21:30N 47°38' W 122°23'0 0.0
2017-Oct-13 21:00N 47°38' W 122°23'0 0.0
2017-Oct-13 20:30N 47°38' W 122°23'0 0.0
2017-Oct-13 20:00N 47°38' W 122°23'0 0.0
2017-Oct-13 19:30N 47°38' W 122°23'0 0.0
2017-Oct-13 19:00N 47°38' W 122°23'0 0.0
2017-Oct-13 18:30N 47°38' W 122°23'0 0.0
2017-Oct-13 18:00N 47°38' W 122°23'0 0.0
2017-Oct-13 17:30N 47°38' W 122°23'0 0.0
2017-Oct-13 17:01N 47°38' W 122°23'0 0.0
2017-Oct-13 16:31N 47°38' W 122°23'0 0.0
2017-Oct-13 16:00N 47°38' W 122°23'0 0.0
2017-Oct-13 15:30N 47°38' W 122°23'0 0.0
2017-Oct-13 15:00N 47°38' W 122°23'0 0.0
2017-Oct-13 14:30N 47°38' W 122°23'0 0.0
2017-Oct-13 14:01N 47°38' W 122°23'0 0.0
2017-Oct-13 13:30N 47°38' W 122°23'0 0.0
2017-Oct-13 13:00N 47°38' W 122°23'0 0.0
2017-Oct-13 12:30N 47°38' W 122°23'0 0.0
2017-Oct-13 12:00N 47°38' W 122°23'0 0.0
2017-Oct-13 11:30N 47°38' W 122°23'0 0.0
2017-Oct-13 11:01N 47°38' W 122°23'0 0.0
2017-Oct-13 10:30N 47°38' W 122°23'0 0.0
2017-Oct-13 10:00N 47°38' W 122°23'0 0.0
2017-Oct-13 09:30N 47°38' W 122°23'0 0.0
2017-Oct-13 09:00N 47°38' W 122°23'0 0.0
2017-Oct-13 08:30N 47°38' W 122°23'0 0.0
2017-Oct-13 08:00N 47°38' W 122°23'0 0.3
2017-Oct-13 07:30N 47°38' W 122°23'3 6.6
2017-Oct-13 07:00N 47°39' W 122°27'4 7.5
2017-Oct-13 06:31N 47°43' W 122°28'4 8.0
2017-Oct-13 06:00N 47°47' W 122°27'4 8.1
2017-Oct-13 05:30N 47°51' W 122°29'4 8.5
2017-Oct-13 05:00N 47°55' W 122°30'4 8.7
2017-Oct-13 04:30N 47°58' W 122°35'25 8.3
2017-Oct-13 01:32N 48°22' W 122°46'2 8.9
2017-Oct-13 01:18N 48°24' W 122°45'3 8.9
2017-Oct-13 01:00N 48°26' W 122°44'5 9.6
2017-Oct-13 00:30N 48°31' W 122°43'3 0.3
2017-Oct-12 13:48N 48°33' W 122°41'2 6.4
2017-Oct-12 13:30N 48°31' W 122°40'1 0.2
2017-Oct-12 08:21N 48°31' W 122°39'0 0.0
2017-Oct-12 07:59N 48°31' W 122°39'0 0.0
2017-Oct-12 07:14N 48°31' W 122°39'0 0.0
2017-Oct-12 06:51N 48°31' W 122°39'0 0.0
2017-Oct-12 05:56N 48°31' W 122°39'0 0.0
2017-Oct-12 00:31N 48°31' W 122°39'0 0.0
2017-Oct-12 00:30N 48°31' W 122°39'3 5.8
2017-Oct-12 00:00N 48°30' W 122°43'31 8.7
2017-Oct-11 20:22N 47°59' W 122°35'410.2
2017-Oct-11 20:00N 47°56' W 122°30'5 9.4
2017-Oct-11 19:30N 47°52' W 122°28'5 9.3
2017-Oct-11 19:00N 47°48' W 122°26'5 9.2
2017-Oct-11 18:30N 47°43' W 122°26'5 9.0
2017-Oct-11 18:00N 47°38' W 122°26'2 3.9
2017-Oct-11 17:30N 47°38' W 122°23'0 0.0
2017-Oct-11 17:01N 47°38' W 122°23'57 3.3
2017-Oct-10 23:59N 48°34' W 122°41'0 0.0
2017-Oct-10 13:53N 48°34' W 122°41'0 0.7
2017-Oct-10 13:31N 48°33' W 122°41'3 0.6
2017-Oct-10 08:30N 48°31' W 122°39'0 0.0
2017-Oct-10 07:53N 48°31' W 122°39'0 0.0
2017-Oct-10 00:12N 48°31' W 122°39'3 6.6
2017-Oct-09 23:42N 48°29' W 122°43'31 8.3
2017-Oct-09 19:57N 47°59' W 122°34'410.3
2017-Oct-09 19:30N 47°56' W 122°29'5 9.5
2017-Oct-09 19:01N 47°51' W 122°28'5 9.3
2017-Oct-09 18:30N 47°47' W 122°26'5 9.3
2017-Oct-09 18:00N 47°42' W 122°26'4 8.6
2017-Oct-09 17:30N 47°38' W 122°24'1 1.8
2017-Oct-09 17:00N 47°38' W 122°23'0 0.0
2017-Oct-09 16:30N 47°38' W 122°23'0 0.0
2017-Oct-09 16:00N 47°38' W 122°23'0 0.0
2017-Oct-09 15:30N 47°38' W 122°23'0 0.0
2017-Oct-09 15:01N 47°38' W 122°23'0 0.0
2017-Oct-09 14:30N 47°38' W 122°23'0 0.0
2017-Oct-09 14:00N 47°38' W 122°23'0 0.0
2017-Oct-09 13:30N 47°38' W 122°23'0 0.0
2017-Oct-09 13:00N 47°38' W 122°23'0 0.0
2017-Oct-09 12:30N 47°38' W 122°23'0 0.0
2017-Oct-09 12:01N 47°38' W 122°23'0 0.0
2017-Oct-09 11:30N 47°38' W 122°23'0 0.0
2017-Oct-09 11:00N 47°38' W 122°23'0 0.0
2017-Oct-09 10:30N 47°38' W 122°23'0 0.0
2017-Oct-09 10:00N 47°38' W 122°23'0 0.0
2017-Oct-09 09:31N 47°38' W 122°23'0 0.0
2017-Oct-09 09:01N 47°38' W 122°23'0 0.0
2017-Oct-09 08:30N 47°38' W 122°23'0 0.0
2017-Oct-09 08:00N 47°38' W 122°23'0 0.0
2017-Oct-09 07:31N 47°38' W 122°23'0 0.0
2017-Oct-09 07:00N 47°38' W 122°23'1 1.5
2017-Oct-09 06:30N 47°37' W 122°24'3 6.6
2017-Oct-09 06:01N 47°39' W 122°28'4 7.7
2017-Oct-09 05:30N 47°43' W 122°27'4 7.6
2017-Oct-09 05:00N 47°47' W 122°27'4 7.7
2017-Oct-09 04:30N 47°50' W 122°29'4 7.3
2017-Oct-09 04:00N 47°54' W 122°30'3 6.7
2017-Oct-09 03:29N 47°56' W 122°34'4 7.3
2017-Oct-09 02:57N 47°60' W 122°37'20 8.3
2017-Oct-09 00:34N 48°18' W 122°47'3 8.4
2017-Oct-09 00:15N 48°21' W 122°46'2 8.1
2017-Oct-08 23:58N 48°23' W 122°45'4 8.0
2017-Oct-08 23:30N 48°27' W 122°44'4 7.3
2017-Oct-08 23:00N 48°30' W 122°43'  

Dump ship's entire track history